Time;durP1;ratioP1;P1;durP2;ratioP2;P2;SDS_P1;SDS_P2;PMS_P1;PMS_P2;Temp;Humidity;BMP_temperature;BMP_pressure;BME280_temperature;BME280_humidity;BME280_pressure;Samples;Min_cycle;Max_cycle;Signal;HPM_P1;HPM_P2
2021/12/15 00:00:29;;;;;;;2.40;2.20;;;;;;;7.62;100.00;101893.47;5070577;28;20170;-77
2021/12/15 00:02:56;;;;;;;4.37;4.00;;;;;;;7.61;100.00;101902.72;5070461;28;20205;-77
2021/12/15 00:05:24;;;;;;;2.53;2.33;;;;;;;7.60;100.00;101911.94;5070327;28;20642;-77
2021/12/15 00:07:52;;;;;;;4.10;3.70;;;;;;;7.59;100.00;101904.88;5070495;28;20178;-77
2021/12/15 00:10:20;;;;;;;1.47;1.37;;;;;;;7.59;100.00;101888.56;5070369;28;20206;-77
2021/12/15 00:12:47;;;;;;;3.03;1.20;;;;;;;7.60;100.00;101892.91;5070417;28;20175;-77
2021/12/15 00:15:12;;;;;;;3.77;3.47;;;;;;;7.60;100.00;101890.19;5070313;28;20179;-77
2021/12/15 00:17:38;;;;;;;2.47;2.27;;;;;;;7.60;100.00;101889.38;5070257;28;20201;-77
2021/12/15 00:20:10;;;;;;;2.73;2.33;;;;;;;7.59;100.00;101891.28;5070433;28;20179;-77
2021/12/15 00:22:36;;;;;;;3.33;2.97;;;;;;;7.61;100.00;101896.44;5070401;28;20248;-77
2021/12/15 00:25:07;;;;;;;4.50;4.10;;;;;;;7.60;100.00;101895.63;5070167;28;20230;-77
2021/12/15 00:27:33;;;;;;;4.37;3.97;;;;;;;7.60;100.00;101890.19;5071637;28;20171;-77
2021/12/15 00:29:58;;;;;;;4.60;3.87;;;;;;;7.60;100.00;101902.97;5074453;28;20280;-77
2021/12/15 00:32:24;;;;;;;1.53;1.43;;;;;;;7.60;100.00;101895.63;5074096;28;20205;-77
2021/12/15 00:34:51;;;;;;;4.67;4.27;;;;;;;7.60;100.00;101889.38;5073999;28;20707;-77
2021/12/15 00:37:18;;;;;;;5.00;4.53;;;;;;;7.61;100.00;101888.28;5074190;28;20178;-76
2021/12/15 00:39:43;;;;;;;4.43;4.03;;;;;;;7.60;100.00;101892.91;5073715;28;20572;-77
2021/12/15 00:42:09;;;;;;;1.00;1.00;;;;;;;7.59;100.00;101888.56;5074232;28;20179;-77
2021/12/15 00:44:35;;;;;;;0.93;0.93;;;;;;;7.58;100.00;101891.53;5073951;28;20258;-77
2021/12/15 00:47:02;;;;;;;1.33;1.23;;;;;;;7.57;100.00;101888.00;5073596;28;20208;-77
2021/12/15 00:49:28;;;;;;;3.70;3.20;;;;;;;7.56;100.00;101882.81;5073739;28;20217;-77
2021/12/15 00:51:54;;;;;;;3.60;3.03;;;;;;;7.56;100.00;101893.69;5073622;28;20175;-77
2021/12/15 00:54:22;;;;;;;1.20;1.07;;;;;;;7.54;100.00;101895.84;5073740;28;20167;-77
2021/12/15 00:56:47;;;;;;;1.73;1.63;;;;;;;7.54;100.00;101898.56;5073473;28;20525;-77
2021/12/15 00:59:13;;;;;;;2.00;1.50;;;;;;;7.49;100.00;101902.03;5073598;28;20204;-77
2021/12/15 01:01:39;;;;;;;4.83;4.43;;;;;;;7.50;100.00;101898.22;5073481;28;20197;-77
2021/12/15 01:04:06;;;;;;;2.20;2.03;;;;;;;7.50;100.00;101900.13;5073433;28;20178;-77
2021/12/15 01:06:33;;;;;;;2.07;1.67;;;;;;;7.49;100.00;101891.16;5073509;28;20261;-77
2021/12/15 01:09:03;;;;;;;3.47;2.00;;;;;;;7.50;100.00;101884.63;5073181;28;20210;-78
2021/12/15 01:19:53;;;;;;;2.17;2.07;;;;;;;7.49;100.00;101893.88;5073220;28;20177;-77
2021/12/15 01:22:29;;;;;;;2.40;2.20;;;;;;;7.51;100.00;101891.72;5073158;28;20220;-76
2021/12/15 01:25:00;;;;;;;4.50;4.10;;;;;;;7.53;100.00;101895.03;5072916;28;20534;-77
2021/12/15 01:27:27;;;;;;;4.97;4.50;;;;;;;7.54;100.00;101904.81;5072872;28;20185;-77
2021/12/15 01:29:52;;;;;;;1.00;0.97;;;;;;;7.56;100.00;101904.56;5072965;28;20241;-77
2021/12/15 01:32:19;;;;;;;3.93;3.00;;;;;;;7.55;100.00;101903.75;5073026;28;20206;-77
2021/12/15 01:34:45;;;;;;;4.97;4.47;;;;;;;7.57;100.00;101909.75;5072814;28;20171;-77
2021/12/15 01:37:12;;;;;;;5.80;5.20;;;;;;;7.59;100.00;101909.47;5072919;28;20181;-77
2021/12/15 01:39:38;;;;;;;4.80;4.40;;;;;;;7.61;100.00;101912.75;5070703;28;20171;-77
2021/12/15 01:42:03;;;;;;;5.60;5.10;;;;;;;7.61;100.00;101924.47;5072663;28;20232;-76
2021/12/15 01:47:00;;;;;;;2.37;2.17;;;;;;;7.65;100.00;101917.44;5072794;28;20217;-77
2021/12/15 01:49:37;;;;;;;9.37;3.80;;;;;;;7.65;100.00;101912.00;5072626;28;20735;-77
2021/12/15 01:52:14;;;;;;;4.03;3.73;;;;;;;7.66;100.00;101921.78;5072793;28;20172;-77
2021/12/15 01:54:44;;;;;;;6.83;5.50;;;;;;;7.69;100.00;101925.94;5071411;28;20546;-77
2021/12/15 01:57:11;;;;;;;2.07;1.90;;;;;;;7.69;100.00;101915.03;5072559;28;20261;-77
2021/12/15 01:59:37;;;;;;;7.10;6.13;;;;;;;7.67;100.00;101907.16;5072387;28;20258;-77
2021/12/15 02:02:04;;;;;;;6.20;2.23;;;;;;;7.68;100.00;101919.66;5072358;28;20204;-76
2021/12/15 02:04:30;;;;;;;6.73;6.13;;;;;;;7.69;100.00;101909.59;5072233;28;20290;-77
2021/12/15 02:06:56;;;;;;;6.33;5.73;;;;;;;7.69;100.00;101905.00;5071984;28;20258;-77
2021/12/15 02:09:43;;;;;;;7.10;6.50;;;;;;;7.72;100.00;101915.34;5071865;28;20206;-77
2021/12/15 02:12:10;;;;;;;4.73;3.33;;;;;;;7.74;100.00;101924.06;5072084;28;20202;-77
2021/12/15 02:14:36;;;;;;;6.83;6.23;;;;;;;7.76;100.00;101923.81;5071992;28;20175;-77
2021/12/15 02:17:01;;;;;;;7.93;7.13;;;;;;;7.78;100.00;101927.09;5072027;28;20253;-77
2021/12/15 02:19:27;;;;;;;5.00;4.53;;;;;;;7.79;100.00;101920.56;5071962;28;20203;-77
2021/12/15 02:21:53;;;;;;;5.87;5.27;;;;;;;7.78;100.00;101913.50;5071844;28;20182;-77
2021/12/15 02:24:19;;;;;;;5.90;5.03;;;;;;;7.74;100.00;101907.75;5071917;28;20166;-77
2021/12/15 02:26:49;;;;;;;8.30;7.50;;;;;;;7.76;100.00;101904.78;5071678;28;20206;-77
2021/12/15 02:29:19;;;;;;;3.27;2.87;;;;;;;7.78;100.00;101904.50;5071683;28;20245;-76
2021/12/15 02:39:27;;;;;;;4.63;4.13;;;;;;;7.76;100.00;101904.78;5071509;28;20240;-77
2021/12/15 02:41:53;;;;;;;7.40;6.60;;;;;;;7.76;100.00;101913.75;5071356;28;20174;-77
2021/12/15 02:44:21;;;;;;;3.83;3.53;;;;;;;7.76;100.00;101908.31;5071844;28;20198;-77
2021/12/15 02:46:48;;;;;;;8.80;7.87;;;;;;;7.77;100.00;101911.84;5071294;28;20278;-77
2021/12/15 02:49:17;;;;;;;7.83;6.77;;;;;;;7.76;100.00;101911.03;5071486;28;20210;-77
2021/12/15 02:51:46;;;;;;;2.63;2.40;;;;;;;7.76;100.00;101900.16;5071135;28;20532;-77
2021/12/15 02:54:13;;;;;;;9.57;6.77;;;;;;;7.74;100.00;101888.72;5071169;28;20175;-76
2021/12/15 02:56:41;;;;;;;6.57;5.97;;;;;;;7.75;100.00;101889.53;5071040;28;20170;-77
2021/12/15 02:59:09;;;;;;;3.97;3.47;;;;;;;7.75;100.00;101897.69;5071266;28;20202;-77
2021/12/15 03:07:06;;;;;;;3.13;2.90;;;;;;;7.73;100.00;101900.66;5070981;28;20175;-77
2021/12/15 03:17:35;;;;;;;9.03;8.23;;;;;;;7.79;100.00;101904.25;5071059;28;20207;-77
2021/12/15 03:20:01;;;;;;;5.97;4.87;;;;;;;7.80;100.00;101905.06;5070974;28;20261;-77
2021/12/15 03:22:27;;;;;;;8.00;7.10;;;;;;;7.80;100.00;101905.88;5070829;28;20167;-77
2021/12/15 03:24:52;;;;;;;9.60;8.17;;;;;;;7.82;100.00;101898.31;5070787;28;20188;-77
2021/12/15 03:27:23;;;;;;;9.37;8.17;;;;;;;7.84;100.00;101898.06;5070818;28;20179;-77
2021/12/15 03:35:33;;;;;;;7.93;7.13;;;;;;;7.90;100.00;101905.19;5070854;28;20174;-76
2021/12/15 03:37:59;;;;;;;6.63;6.03;;;;;;;7.91;100.00;101909.53;5070620;28;20526;-77
2021/12/15 03:40:33;;;;;;;7.53;4.50;;;;;;;7.90;100.00;101907.91;5070639;28;20186;-77
2021/12/15 03:43:03;;;;;;;9.53;6.93;;;;;;;7.90;100.00;101907.91;5070568;28;20190;-77
2021/12/15 03:45:33;;;;;;;11.50;6.63;;;;;;;7.92;100.00;101909.28;5070455;28;20186;-76
2021/12/15 03:48:03;;;;;;;1.83;1.73;;;;;;;7.94;100.00;101903.56;5070487;28;20269;-76
2021/12/15 03:50:30;;;;;;;4.13;3.07;;;;;;;7.93;100.00;101913.63;5070176;28;20206;-76
2021/12/15 03:52:55;;;;;;;3.77;3.40;;;;;;;7.94;100.00;101900.84;5070441;28;20669;-77
2021/12/15 03:55:25;;;;;;;7.33;4.20;;;;;;;7.93;100.00;101901.94;5070287;28;20178;-77
2021/12/15 03:57:52;;;;;;;2.07;1.97;;;;;;;7.92;100.00;101894.84;5070331;28;20261;-77
2021/12/15 04:00:19;;;;;;;4.10;3.73;;;;;;;7.94;100.00;101906.28;5070595;28;20178;-77
2021/12/15 04:02:46;;;;;;;4.77;3.57;;;;;;;7.92;100.00;101900.28;5071903;28;20206;-77
2021/12/15 04:05:15;;;;;;;3.60;2.83;;;;;;;7.93;100.00;101904.66;5074436;28;20265;-77
2021/12/15 04:07:40;;;;;;;10.80;8.37;;;;;;;7.91;100.00;101895.94;5074448;28;20588;-77
2021/12/15 04:10:09;;;;;;;6.63;6.03;;;;;;;7.92;100.00;101897.56;5074317;28;20331;-77
2021/12/15 04:12:35;;;;;;;3.17;2.87;;;;;;;7.92;100.00;101898.41;5074541;28;20198;-77
2021/12/15 04:15:21;;;;;;;5.57;5.07;;;;;;;7.93;100.00;101893.78;5074315;28;20170;-77
2021/12/15 04:17:50;;;;;;;8.53;7.23;;;;;;;7.93;100.00;101902.75;5074385;28;20602;-77
2021/12/15 04:20:19;;;;;;;7.70;6.90;;;;;;;7.93;100.00;101910.91;5074620;28;20181;-77
2021/12/15 04:22:44;;;;;;;8.23;6.00;;;;;;;7.93;100.00;101899.22;5074139;28;20241;-77
2021/12/15 04:25:20;;;;;;;8.33;6.27;;;;;;;7.94;100.00;101900.84;5074131;28;20171;-77
2021/12/15 04:28:18;;;;;;;7.67;5.80;;;;;;;7.93;100.00;101913.63;5074076;28;20170;-77
2021/12/15 04:30:48;;;;;;;9.07;6.07;;;;;;;7.92;100.00;101906.56;5073918;28;20625;-77
2021/12/15 04:33:27;;;;;;;0.63;0.63;;;;;;;7.93;100.00;101915.53;5073892;28;20162;-77
2021/12/15 04:35:55;;;;;;;7.70;5.77;;;;;;;7.94;100.00;101925.34;5073831;28;20174;-77
2021/12/15 04:38:24;;;;;;;2.10;1.90;;;;;;;7.95;100.00;101921.53;5073637;28;20729;-77
2021/12/15 04:40:50;;;;;;;7.80;6.53;;;;;;;7.94;100.00;101934.34;5074137;28;20182;-77
2021/12/15 04:43:16;;;;;;;8.63;6.77;;;;;;;7.96;100.00;101931.38;5073863;28;20174;-77
2021/12/15 04:45:42;;;;;;;8.83;1.87;;;;;;;7.96;100.00;101928.66;5073720;28;20175;-77
2021/12/15 04:48:08;;;;;;;2.87;2.63;;;;;;;7.96;100.00;101931.38;5073774;28;20691;-76
2021/12/15 04:50:34;;;;;;;5.80;5.17;;;;;;;7.97;100.00;101938.47;5073483;28;20213;-77
2021/12/15 04:53:02;;;;;;;5.50;4.50;;;;;;;7.96;100.00;101932.19;5073460;28;20174;-76
2021/12/15 04:55:29;;;;;;;5.60;3.93;;;;;;;7.98;100.00;101929.22;5073408;28;20178;-77
2021/12/15 04:57:57;;;;;;;5.73;5.03;;;;;;;7.96;100.00;101928.66;5073510;28;20181;-76
2021/12/15 05:00:26;;;;;;;1.90;1.80;;;;;;;7.97;100.00;101927.56;5073805;28;20280;-77
2021/12/15 05:02:52;;;;;;;5.67;3.77;;;;;;;7.96;100.00;101937.66;5073464;28;20166;-77
2021/12/15 05:05:19;;;;;;;4.40;4.00;;;;;;;7.94;100.00;101936.22;5072936;28;20546;-77
2021/12/15 05:07:45;;;;;;;2.93;2.73;;;;;;;7.94;100.00;101947.13;5073438;28;20539;-77
2021/12/15 05:10:11;;;;;;;11.48;10.18;;;;;;;7.97;100.00;101942.00;5071793;28;20445;-76
2021/12/15 05:12:37;;;;;;;3.07;2.77;;;;;;;8.00;100.00;101943.38;5073167;28;20296;-76
2021/12/15 05:15:07;;;;;;;4.97;4.30;;;;;;;7.98;100.00;101934.66;5072737;28;20238;-77
2021/12/15 05:17:32;;;;;;;7.37;5.87;;;;;;;7.96;100.00;101950.44;5073563;28;20170;-77
2021/12/15 05:20:02;;;;;;;4.17;3.70;;;;;;;7.95;100.00;101941.41;5073250;28;20214;-77
2021/12/15 05:22:28;;;;;;;5.77;4.90;;;;;;;7.95;100.00;101944.13;5073233;28;20523;-77
2021/12/15 05:24:53;;;;;;;8.57;7.63;;;;;;;7.98;100.00;101943.66;5072998;28;20174;-76
2021/12/15 05:27:20;;;;;;;6.07;5.47;;;;;;;8.01;100.00;101947.75;5073443;28;20174;-77
2021/12/15 05:29:47;;;;;;;9.17;6.43;;;;;;;8.03;100.00;101949.13;5072898;28;20757;-77
2021/12/15 05:32:18;;;;;;;4.03;3.63;;;;;;;8.04;100.00;101955.38;5072631;28;20174;-77
2021/12/15 05:34:44;;;;;;;1.60;1.37;;;;;;;8.04;100.00;101955.38;5072765;28;20225;-76
2021/12/15 05:37:10;;;;;;;5.77;4.27;;;;;;;8.04;100.00;101955.38;5071621;28;20531;-77
2021/12/15 05:39:37;;;;;;;5.93;5.27;;;;;;;8.05;100.00;101962.47;5072674;28;20175;-77
2021/12/15 05:42:03;;;;;;;9.83;8.60;;;;;;;8.04;100.00;101964.38;5072811;28;20175;-77
2021/12/15 05:44:29;;;;;;;7.87;7.07;;;;;;;8.05;100.00;101974.19;5072716;28;20175;-77
2021/12/15 05:46:57;;;;;;;3.83;3.53;;;;;;;8.05;100.00;101966.03;5072523;28;20227;-77
2021/12/15 05:49:22;;;;;;;7.40;6.07;;;;;;;8.07;100.00;101968.47;5072598;28;20312;-77
2021/12/15 05:51:48;;;;;;;7.17;6.40;;;;;;;8.10;100.00;101973.44;5073257;28;20856;-77
2021/12/15 05:54:14;;;;;;;7.90;6.80;;;;;;;8.12;100.00;101978.63;5072700;28;20186;-77
2021/12/15 05:56:40;;;;;;;6.90;5.87;;;;;;;8.13;100.00;101972.91;5072573;28;20231;-77
2021/12/15 05:59:07;;;;;;;9.53;6.00;;;;;;;8.16;100.00;101974.28;5074349;28;20724;-77
2021/12/15 06:01:32;;;;;;;10.47;7.03;;;;;;;8.18;100.00;101980.31;5080051;28;20167;-77
2021/12/15 06:04:00;;;;;;;3.23;2.83;;;;;;;8.17;100.00;101979.47;5073557;28;20556;-77
2021/12/15 06:06:26;;;;;;;8.37;7.57;;;;;;;8.16;100.00;101979.75;5073271;28;20657;-77
2021/12/15 06:08:52;;;;;;;9.20;3.07;;;;;;;8.17;100.00;101975.94;5070780;28;20564;-77
2021/12/15 06:11:17;;;;;;;6.90;5.30;;;;;;;8.16;100.00;101985.19;5072358;28;20174;-77
2021/12/15 06:13:47;;;;;;;9.17;8.20;;;;;;;8.16;100.00;101987.91;5072534;28;20198;-77
2021/12/15 06:16:13;;;;;;;5.63;5.13;;;;;;;8.18;100.00;101983.84;5071990;28;20538;-77
2021/12/15 06:18:38;;;;;;;8.40;7.60;;;;;;;8.18;100.00;101992.00;5072148;28;20185;-77
2021/12/15 06:21:03;;;;;;;15.17;10.60;;;;;;;8.16;100.00;101982.47;5072037;28;20702;-77
2021/12/15 06:23:30;;;;;;;10.63;8.93;;;;;;;8.15;100.00;101989.00;5071791;28;20622;-77
2021/12/15 06:26:00;;;;;;;10.93;9.73;;;;;;;8.14;100.00;101990.06;5070790;28;20193;-77
2021/12/15 06:28:28;;;;;;;6.37;4.33;;;;;;;8.15;100.00;101986.25;5071930;28;20193;-76
2021/12/15 06:30:55;;;;;;;8.10;7.30;;;;;;;8.13;100.00;101980.25;5071918;28;20181;-78
2021/12/15 06:33:21;;;;;;;13.17;10.33;;;;;;;8.14;100.00;101987.34;5070255;28;20626;-77
2021/12/15 06:35:53;;;;;;;25.80;15.37;;;;;;;8.10;100.00;101984.31;5071378;28;20178;-77
2021/12/15 06:38:20;;;;;;;4.10;3.70;;;;;;;8.14;100.00;101984.63;5071378;28;20328;-77
2021/12/15 06:40:46;;;;;;;12.80;7.17;;;;;;;8.14;100.00;102001.78;5071429;28;20174;-77
2021/12/15 06:43:11;;;;;;;2.97;2.80;;;;;;;8.13;100.00;101991.97;5071381;28;20170;-76
2021/12/15 06:45:50;;;;;;;9.97;7.37;;;;;;;8.14;100.00;101998.25;5071262;28;20713;-77
2021/12/15 06:59:11;;;;;;;18.50;11.70;;;;;;;7.98;100.00;101986.38;5071102;28;20554;-77
2021/12/15 07:01:36;;;;;;;22.60;12.10;;;;;;;7.97;100.00;101990.16;5070884;28;20182;-77
2021/12/15 07:04:02;;;;;;;22.80;12.73;;;;;;;7.96;100.00;101980.38;5071006;28;20204;-77
2021/12/15 07:06:27;;;;;;;27.40;13.67;;;;;;;7.96;100.00;101980.38;5070810;28;20196;-77
2021/12/15 07:08:52;;;;;;;28.63;17.17;;;;;;;7.94;100.00;101986.03;5070678;28;20590;-77
2021/12/15 07:11:19;;;;;;;22.40;14.37;;;;;;;7.95;100.00;101989.56;5070673;28;20185;-77
2021/12/15 07:13:44;;;;;;;17.80;11.27;;;;;;;7.97;100.00;102003.78;5071039;28;20180;-77
2021/12/15 07:16:10;;;;;;;13.63;9.80;;;;;;;7.98;100.00;102003.53;5070527;28;20253;-77
2021/12/15 07:18:49;;;;;;;12.27;8.10;;;;;;;8.00;100.00;102005.97;5070744;28;20634;-77
2021/12/15 07:21:21;;;;;;;14.93;10.27;;;;;;;8.01;100.00;101999.47;5070719;28;20269;-77
2021/12/15 07:23:48;;;;;;;18.13;8.33;;;;;;;8.00;100.00;102004.09;5070578;28;20213;-77
2021/12/15 07:26:14;;;;;;;6.53;4.83;;;;;;;8.02;100.00;102015.53;5070404;28;20569;-77
2021/12/15 07:28:40;;;;;;;26.87;16.20;;;;;;;8.04;100.00;102016.09;5066713;28;20185;-77
2021/12/15 07:31:07;;;;;;;22.60;10.57;;;;;;;8.05;100.00;102017.72;5070866;28;20444;-76
2021/12/15 07:33:32;;;;;;;9.00;6.07;;;;;;;8.05;100.00;102023.19;5070709;28;20278;-76
2021/12/15 07:35:58;;;;;;;5.00;4.60;;;;;;;8.06;100.00;102024.00;5070593;28;20178;-76
2021/12/15 07:38:24;;;;;;;6.70;6.07;;;;;;;8.05;100.00;102023.19;5070523;28;20171;-76
2021/12/15 07:40:50;;;;;;;10.30;7.97;;;;;;;8.06;100.00;102024.00;5068658;28;20217;-76
2021/12/15 07:43:24;;;;;;;8.53;7.37;;;;;;;8.05;100.00;102030.53;5070547;28;20224;-76
2021/12/15 07:45:53;;;;;;;7.37;6.13;;;;;;;8.04;100.00;102024.25;5070440;28;20202;-75
2021/12/15 07:48:20;;;;;;;18.17;12.83;;;;;;;8.03;100.00;102028.06;5070673;28;20536;-74
2021/12/15 07:50:49;;;;;;;21.00;7.17;;;;;;;8.02;100.00;102039.22;5070549;28;20226;-74
2021/12/15 07:53:16;;;;;;;9.03;7.37;;;;;;;8.00;100.00;102044.09;5070390;28;20639;-75
2021/12/15 07:55:42;;;;;;;6.30;5.80;;;;;;;7.96;100.00;102043.78;5070428;28;20212;-75
2021/12/15 07:58:09;;;;;;;4.63;4.20;;;;;;;7.93;100.00;102029.84;5070393;28;20178;-76
2021/12/15 08:00:36;;;;;;;14.53;8.93;;;;;;;7.91;100.00;102032.81;5070514;28;20720;-76
2021/12/15 08:03:02;;;;;;;32.70;6.23;;;;;;;7.91;100.00;102040.16;5070447;28;20638;-76
2021/12/15 08:05:28;;;;;;;5.30;4.90;;;;;;;7.91;100.00;102032.00;5070405;28;20182;-76
2021/12/15 08:07:53;;;;;;;8.50;5.90;;;;;;;7.93;100.00;102038.00;5070453;28;20649;-76
2021/12/15 08:10:19;;;;;;;12.97;7.77;;;;;;;7.91;100.00;102038.25;5070440;28;20750;-76
2021/12/15 08:12:46;;;;;;;6.77;5.07;;;;;;;7.92;100.00;102031.75;5070454;28;20179;-76
2021/12/15 08:15:12;;;;;;;14.40;6.30;;;;;;;7.91;100.00;102038.25;5070321;28;20182;-76
2021/12/15 08:17:40;;;;;;;2.70;2.50;;;;;;;7.89;100.00;102031.44;5070341;28;20183;-76
2021/12/15 08:20:10;;;;;;;13.80;9.07;;;;;;;7.89;100.00;102031.44;5070356;28;20807;-77
2021/12/15 08:22:37;;;;;;;10.93;6.93;;;;;;;7.89;100.00;102034.97;5070418;28;20236;-75
2021/12/15 08:25:05;;;;;;;14.80;11.50;;;;;;;7.89;100.00;102037.69;5070140;28;20174;-74
2021/12/15 08:27:30;;;;;;;5.23;4.73;;;;;;;7.92;100.00;102041.81;5070107;28;20690;-74
2021/12/15 08:29:56;;;;;;;9.70;4.70;;;;;;;7.94;100.00;102045.09;5069870;28;20278;-76
2021/12/15 08:32:21;;;;;;;12.47;7.77;;;;;;;7.97;100.00;102041.88;5069643;28;20198;-76
2021/12/15 08:34:47;;;;;;;3.33;3.03;;;;;;;7.99;100.00;102037.81;5069484;28;20253;-75
2021/12/15 08:37:14;;;;;;;4.80;3.47;;;;;;;8.02;100.00;102042.75;5069676;28;20185;-77
2021/12/15 08:39:44;;;;;;;6.33;5.73;;;;;;;8.05;100.00;102044.97;5067121;28;20196;-76
2021/12/15 08:42:11;;;;;;;6.70;3.30;;;;;;;8.05;100.00;102055.03;5069471;28;20209;-80
2021/12/15 08:44:38;;;;;;;5.07;4.20;;;;;;;8.06;100.00;102051.22;5069516;28;20182;-75
2021/12/15 08:47:06;;;;;;;9.87;8.17;;;;;;;8.06;100.00;102049.31;5069623;28;20646;-74
2021/12/15 08:49:31;;;;;;;6.80;6.20;;;;;;;8.05;100.00;102053.13;5071982;28;20277;-74
2021/12/15 08:51:57;;;;;;;2.23;2.10;;;;;;;8.03;100.00;102057.19;5073192;28;20262;-74
2021/12/15 08:54:23;;;;;;;6.23;5.63;;;;;;;8.01;100.00;102053.91;5073293;28;20657;-74
2021/12/15 08:56:49;;;;;;;3.07;2.97;;;;;;;7.99;100.00;102051.44;5073073;28;20173;-74
2021/12/15 08:59:15;;;;;;;5.03;4.53;;;;;;;7.97;100.00;102050.88;5073241;28;20178;-74
2021/12/15 09:01:42;;;;;;;6.13;5.53;;;;;;;7.96;100.00;102051.94;5073536;28;20254;-73
2021/12/15 09:04:08;;;;;;;6.03;5.43;;;;;;;7.96;100.00;102053.84;5073529;28;20182;-73
2021/12/15 09:06:35;;;;;;;3.33;3.13;;;;;;;7.97;100.00;102050.03;5073332;28;20175;-73
2021/12/15 09:09:05;;;;;;;4.97;4.00;;;;;;;7.98;100.00;102049.78;5073637;28;20201;-73
2021/12/15 09:11:30;;;;;;;11.13;6.03;;;;;;;8.00;100.00;102049.53;5073312;28;20171;-73
2021/12/15 09:13:59;;;;;;;4.17;3.77;;;;;;;8.03;100.00;102051.75;5073229;28;20171;-73
2021/12/15 09:16:27;;;;;;;2.93;2.10;;;;;;;8.02;100.00;102059.06;5072929;28;20174;-73
2021/12/15 09:18:54;;;;;;;9.43;7.90;;;;;;;8.05;100.00;102061.28;5073252;28;20175;-73
2021/12/15 09:21:22;;;;;;;4.73;4.30;;;;;;;8.10;100.00;102065.13;5072874;28;20167;-73
2021/12/15 09:23:48;;;;;;;4.73;4.33;;;;;;;8.12;100.00;102061.09;5072852;28;20175;-72
2021/12/15 09:26:14;;;;;;;8.13;6.97;;;;;;;8.17;100.00;102069.31;5072605;28;20175;-73
2021/12/15 09:28:39;;;;;;;6.57;5.87;;;;;;;8.19;100.00;102061.72;5072875;28;20381;-73
2021/12/15 09:31:07;;;;;;;8.53;7.27;;;;;;;8.22;100.00;102069.38;5072898;28;20175;-73
2021/12/15 09:33:43;;;;;;;9.67;8.27;;;;;;;8.26;100.00;102066.97;5072882;28;20174;-73
2021/12/15 09:36:10;;;;;;;8.10;6.63;;;;;;;8.26;100.00;102073.25;5072673;28;20197;-73
2021/12/15 09:38:36;;;;;;;7.73;6.73;;;;;;;8.31;100.00;102067.84;5072574;28;20224;-73
2021/12/15 09:41:05;;;;;;;5.17;4.63;;;;;;;8.34;100.00;102072.81;5072599;28;20167;-73
2021/12/15 09:43:32;;;;;;;7.30;6.43;;;;;;;8.35;100.00;102066.28;5072651;28;20246;-73
2021/12/15 10:05:14;;;;;;;2.23;2.10;;;;;;;8.34;100.00;102071.97;5072444;28;20512;-73
2021/12/15 10:19:18;;;;;;;3.33;2.03;;;;;;;8.26;100.00;102056.09;5072010;28;20673;-73
2021/12/15 10:25:12;;;;;;;5.07;3.93;;;;;;;8.23;100.00;102073.72;4989717;28;20193;-73
2021/12/15 10:27:40;;;;;;;4.97;4.53;;;;;;;8.24;100.00;102069.94;5064205;28;20182;-74
2021/12/15 10:30:24;;;;;;;1.50;1.40;;;;;;;8.24;100.00;102050.03;5071570;28;20248;-72
2021/12/15 10:32:54;;;;;;;3.13;2.13;;;;;;;8.26;100.00;102065.06;5071250;28;20605;-73
2021/12/15 10:35:32;;;;;;;2.87;2.67;;;;;;;8.24;100.00;102072.66;5071217;28;20627;-73
2021/12/15 10:38:19;;;;;;;5.07;3.60;;;;;;;8.26;100.00;102059.63;5071336;28;20189;-72
2021/12/15 10:40:52;;;;;;;5.27;4.80;;;;;;;8.26;100.00;102062.34;5071399;28;20232;-73
2021/12/15 10:43:20;;;;;;;6.70;5.97;;;;;;;8.27;100.00;102069.44;5071435;28;20182;-73
2021/12/15 10:45:57;;;;;;;2.90;2.70;;;;;;;8.28;100.00;102059.38;5071055;28;20182;-73
2021/12/15 10:48:37;;;;;;;1.73;1.63;;;;;;;8.28;100.00;102076.53;5071727;28;20177;-72
2021/12/15 10:51:24;;;;;;;3.97;3.37;;;;;;;8.29;100.00;102063.72;5071279;28;20182;-73
2021/12/15 10:53:52;;;;;;;3.03;2.83;;;;;;;8.31;100.00;102070.56;5071184;28;20260;-73
2021/12/15 10:56:22;;;;;;;3.73;3.43;;;;;;;8.32;100.00;102064.03;5070929;28;20638;-73
2021/12/15 10:58:52;;;;;;;1.47;1.37;;;;;;;8.33;100.00;102067.59;5071075;28;20174;-73
2021/12/15 11:01:41;;;;;;;4.70;3.27;;;;;;;8.33;100.00;102057.50;5071289;28;20537;-72
2021/12/15 11:04:20;;;;;;;4.23;3.57;;;;;;;8.37;100.00;102059.75;5071099;28;20275;-72
2021/12/15 11:07:05;;;;;;;3.53;3.23;;;;;;;8.40;100.00;102064.72;5070818;28;20211;-72
2021/12/15 11:09:38;;;;;;;2.20;2.00;;;;;;;8.40;100.00;102060.06;5070789;28;20696;-72
2021/12/15 11:12:10;;;;;;;3.13;2.37;;;;;;;8.39;100.00;102061.16;5070590;28;20166;-72
2021/12/15 11:14:38;;;;;;;3.80;3.20;;;;;;;8.41;100.00;102061.72;5070762;28;20174;-72
2021/12/15 11:17:24;;;;;;;3.07;2.77;;;;;;;8.41;100.00;102053.56;5070638;28;20181;-73
2021/12/15 11:19:58;;;;;;;4.63;4.23;;;;;;;8.42;100.00;102060.63;5066673;28;20639;-73
2021/12/15 11:22:37;;;;;;;3.40;2.70;;;;;;;8.43;100.00;102065.00;5068226;28;20269;-72
2021/12/15 11:25:11;;;;;;;3.10;2.37;;;;;;;8.46;100.00;102052.78;5069474;28;20567;-73
2021/12/15 11:27:38;;;;;;;2.30;2.10;;;;;;;8.49;100.00;102057.69;5070679;28;20185;-72
2021/12/15 11:30:09;;;;;;;2.07;1.97;;;;;;;8.50;100.00;102060.16;5070364;28;20213;-73
2021/12/15 11:32:48;;;;;;;0.60;0.40;;;;;;;8.52;100.00;102060.72;5070660;28;20603;-73
2021/12/15 11:35:20;;;;;;;3.07;0.90;;;;;;;8.54;100.00;102058.59;5069294;28;20167;-72
2021/12/15 11:37:53;;;;;;;1.67;1.57;;;;;;;8.56;100.00;102061.06;5070450;28;20253;-72
2021/12/15 11:40:42;;;;;;;2.07;1.80;;;;;;;8.55;100.00;102057.50;5070543;28;20277;-73
2021/12/15 11:43:10;;;;;;;1.73;1.63;;;;;;;8.55;100.00;102054.78;5070708;28;20174;-72
2021/12/15 11:45:41;;;;;;;1.00;1.00;;;;;;;8.56;100.00;102052.88;5070443;28;20715;-73
2021/12/15 11:48:17;;;;;;;3.17;2.13;;;;;;;8.57;100.00;102051.78;5071060;28;20170;-72
2021/12/15 11:50:45;;;;;;;2.37;2.17;;;;;;;8.56;100.00;102052.88;5071008;28;20201;-71
2021/12/15 11:53:22;;;;;;;2.20;2.00;;;;;;;8.56;100.00;102056.41;5070579;28;20177;-72
2021/12/15 11:55:49;;;;;;;2.53;2.33;;;;;;;8.58;100.00;102069.78;5070281;28;20166;-72
2021/12/15 11:58:14;;;;;;;1.63;1.53;;;;;;;8.57;100.00;102062.69;5070711;28;20175;-72
2021/12/15 12:00:39;;;;;;;2.40;2.20;;;;;;;8.57;100.00;102058.06;5070407;28;20181;-72
2021/12/15 12:03:05;;;;;;;1.50;1.40;;;;;;;8.57;100.00;102060.78;5070431;28;20213;-72
2021/12/15 12:05:34;;;;;;;5.10;4.60;;;;;;;8.61;100.00;102064.63;5070495;28;20520;-72
2021/12/15 12:08:11;;;;;;;2.90;2.57;;;;;;;8.63;100.00;102067.09;5070486;28;20539;-72
2021/12/15 12:10:47;;;;;;;1.87;1.77;;;;;;;8.63;100.00;102067.91;5070271;28;20708;-72
2021/12/15 12:13:26;;;;;;;6.00;5.40;;;;;;;8.64;100.00;102069.56;5070026;28;20171;-72
2021/12/15 12:15:57;;;;;;;3.07;2.77;;;;;;;8.64;100.00;102058.66;5070225;28;20525;-72
2021/12/15 12:18:27;;;;;;;8.13;7.33;;;;;;;8.64;100.00;102061.38;5068595;28;20183;-72
2021/12/15 12:21:03;;;;;;;3.40;3.10;;;;;;;8.64;100.00;102063.28;5068325;28;20186;-72
2021/12/15 12:23:32;;;;;;;1.90;1.80;;;;;;;8.64;100.00;102060.56;5070970;28;20178;-71
2021/12/15 12:26:03;;;;;;;9.03;6.30;;;;;;;8.67;100.00;102053.78;5073911;28;20228;-72
2021/12/15 12:28:31;;;;;;;5.17;4.67;;;;;;;8.67;100.00;102054.59;5074153;28;20166;-72
2021/12/15 12:31:17;;;;;;;5.33;4.23;;;;;;;8.67;100.00;102051.03;5073937;28;20252;-72
2021/12/15 12:33:43;;;;;;;3.93;3.33;;;;;;;8.68;100.00;102053.53;5074137;28;20167;-72
2021/12/15 12:36:31;;;;;;;3.77;3.37;;;;;;;8.71;100.00;102052.19;5073947;28;20178;-72
2021/12/15 12:39:02;;;;;;;2.97;2.03;;;;;;;8.72;100.00;102054.66;5073624;28;20208;-72
2021/12/15 12:41:31;;;;;;;5.83;1.90;;;;;;;8.74;100.00;102051.66;5073883;28;20166;-72
2021/12/15 12:44:00;;;;;;;1.37;1.27;;;;;;;8.76;100.00;102046.78;5073719;28;20520;-72
2021/12/15 12:46:43;;;;;;;2.43;2.23;;;;;;;8.77;100.00;102051.13;5073547;28;20257;-72
2021/12/15 13:00:29;;;;;;;2.83;2.60;;;;;;;8.80;100.00;102031.53;5073599;28;20413;-72
2021/12/15 13:03:23;;;;;;;7.43;6.00;;;;;;;8.84;100.00;102041.69;5073869;28;20170;-72
2021/12/15 13:06:03;;;;;;;7.33;5.50;;;;;;;8.86;100.00;102033.25;5045534;28;20191;-72